Time;durP1;ratioP1;P1;durP2;ratioP2;P2;SDS_P1;SDS_P2;PMS_P1;PMS_P2;Temp;Humidity;BMP_temperature;BMP_pressure;BME280_temperature;BME280_humidity;BME280_pressure;Samples;Min_cycle;Max_cycle;Signal;HPM_P1;HPM_P2
2022/05/05 00:01:29;;;;;;;14.82;8.82;;;11.60;94.30;;;;;;5112004;28;20479;-44
2022/05/05 00:03:55;;;;;;;11.13;8.50;;;11.50;94.40;;;;;;5094174;28;20036;-53
2022/05/05 00:06:21;;;;;;;12.50;9.20;;;11.50;94.40;;;;;;5092180;28;20031;-51
2022/05/05 00:08:47;;;;;;;12.43;9.13;;;11.40;94.50;;;;;;5093442;28;20047;-62
2022/05/05 00:16:41;;;;;;;13.43;9.90;;;11.30;94.70;;;;;;5113978;28;20062;-50
2022/05/05 00:19:06;;;;;;;12.60;10.15;;;11.30;94.90;;;;;;5113753;27;20020;-53
2022/05/05 00:21:32;;;;;;;12.38;9.25;;;11.30;95.00;;;;;;5099689;28;20393;-45
2022/05/05 00:23:58;;;;;;;12.70;9.90;;;11.20;94.90;;;;;;5093306;28;20115;-49
2022/05/05 00:26:23;;;;;;;12.50;9.98;;;11.20;94.90;;;;;;5093349;28;20029;-44
2022/05/05 00:28:49;;;;;;;12.57;8.95;;;11.10;94.90;;;;;;5092925;28;20038;-55
2022/05/05 00:31:15;;;;;;;10.88;8.27;;;11.20;94.80;;;;;;5102771;28;20077;-55
2022/05/05 00:33:40;;;;;;;10.93;9.48;;;11.10;94.70;;;;;;5113363;28;20209;-48
2022/05/05 00:36:06;;;;;;;10.75;8.65;;;11.00;94.60;;;;;;5113325;28;20026;-57
2022/05/05 00:38:32;;;;;;;10.50;8.60;;;11.00;94.50;;;;;;5113549;28;20032;-44
2022/05/05 00:40:57;;;;;;;10.23;8.10;;;11.00;94.30;;;;;;5104580;28;20103;-54
2022/05/05 00:43:23;;;;;;;11.35;8.50;;;10.90;94.30;;;;;;5092793;28;20028;-41
2022/05/05 00:45:49;;;;;;;10.30;8.40;;;10.90;94.30;;;;;;5092657;28;20020;-55
2022/05/05 00:48:16;;;;;;;10.18;8.38;;;10.90;94.30;;;;;;5092646;28;20112;-61
2022/05/05 00:50:42;;;;;;;11.18;8.20;;;10.80;94.20;;;;;;5093805;28;20039;-47
2022/05/05 00:53:08;;;;;;;10.45;8.40;;;10.80;94.20;;;;;;5092694;28;20020;-54
2022/05/05 00:55:38;;;;;;;11.15;8.45;;;10.80;94.20;;;;;;5092613;28;20097;-54
2022/05/05 00:58:05;;;;;;;11.52;8.68;;;10.70;94.00;;;;;;5092560;28;20024;-58
2022/05/05 01:00:32;;;;;;;11.95;9.27;;;10.70;94.00;;;;;;5097044;28;20095;-54
2022/05/05 01:02:59;;;;;;;10.65;7.75;;;10.70;94.20;;;;;;5112821;28;20024;-55
2022/05/05 01:05:27;;;;;;;10.32;8.48;;;10.60;94.20;;;;;;5112762;27;20024;-52
2022/05/05 01:07:57;;;;;;;11.43;9.18;;;10.60;94.00;;;;;;5112610;28;20509;-52
2022/05/05 01:10:25;;;;;;;12.63;8.65;;;10.50;94.10;;;;;;5108683;28;20081;-56
2022/05/05 01:12:51;;;;;;;11.43;9.00;;;10.50;94.20;;;;;;5092320;28;20108;-57
2022/05/05 01:15:17;;;;;;;16.05;9.90;;;10.50;94.20;;;;;;5092148;28;20043;-49
2022/05/05 01:17:43;;;;;;;11.57;9.20;;;10.40;94.00;;;;;;5090866;28;20016;-47
2022/05/05 01:20:17;;;;;;;11.15;8.45;;;10.40;94.10;;;;;;5093799;28;20101;-50
2022/05/05 01:22:42;;;;;;;11.73;9.07;;;10.40;94.10;;;;;;5112630;28;20089;-54
2022/05/05 01:28:11;;;;;;;10.65;9.32;;;10.40;94.00;;;;;;5111781;28;20138;-55
2022/05/05 01:30:38;;;;;;;11.63;9.20;;;10.30;94.00;;;;;;5101485;28;20046;-51
2022/05/05 01:33:18;;;;;;;11.60;9.45;;;10.20;94.10;;;;;;5112360;28;20027;-55
2022/05/05 01:35:46;;;;;;;12.10;9.30;;;10.20;94.10;;;;;;5112285;28;20104;-45
2022/05/05 01:38:16;;;;;;;10.15;7.93;;;10.20;94.00;;;;;;5110796;28;20395;-55
2022/05/05 01:40:46;;;;;;;11.02;8.93;;;10.10;93.90;;;;;;5105417;28;20024;-49
2022/05/05 01:43:12;;;;;;;;;;;10.00;93.80;;;;;;5090821;28;20120;-57
2022/05/05 01:45:38;;;;;;;10.00;7.85;;;9.90;93.70;;;;;;5091786;28;19911;-55
2022/05/05 01:48:04;;;;;;;11.85;8.73;;;9.90;93.80;;;;;;5091605;28;20024;-56
2022/05/05 01:50:32;;;;;;;11.23;8.63;;;9.80;93.80;;;;;;5094688;28;20027;-52
2022/05/05 01:53:00;;;;;;;11.45;8.65;;;9.70;93.90;;;;;;5112107;28;20494;-51
2022/05/05 01:55:27;;;;;;;10.90;8.15;;;9.70;94.20;;;;;;5111951;28;20050;-43
2022/05/05 01:57:54;;;;;;;12.60;8.75;;;9.60;94.20;;;;;;5110745;28;20027;-51
2022/05/05 02:00:20;;;;;;;9.93;7.95;;;9.60;94.20;;;;;;5110318;28;20050;-53
2022/05/05 02:02:46;;;;;;;10.73;8.93;;;9.50;94.20;;;;;;5111947;28;20023;-49
2022/05/05 02:05:13;;;;;;;10.85;8.90;;;9.50;94.30;;;;;;5111894;28;20110;-48
2022/05/05 02:07:41;;;;;;;10.55;8.35;;;9.50;94.30;;;;;;5111716;28;20024;-47
2022/05/05 02:10:08;;;;;;;11.07;8.25;;;9.40;94.10;;;;;;5110150;28;20035;-53
2022/05/05 02:12:38;;;;;;;10.10;8.15;;;9.40;94.10;;;;;;5091626;28;20035;-45
2022/05/05 02:15:08;;;;;;;9.82;7.82;;;9.30;93.80;;;;;;5091512;28;20028;-39
2022/05/05 02:17:35;;;;;;;9.70;6.80;;;9.30;93.70;;;;;;5091488;28;20443;-47
2022/05/05 02:20:01;;;;;;;9.23;7.13;;;9.20;93.80;;;;;;5092127;28;20028;-41
2022/05/05 02:22:28;;;;;;;9.88;7.35;;;9.10;94.00;;;;;;5111821;28;20030;-41
2022/05/05 02:24:53;;;;;;;10.02;7.82;;;9.10;94.10;;;;;;5111988;28;20055;-43
2022/05/05 02:27:19;;;;;;;11.23;7.72;;;9.00;94.10;;;;;;5111649;28;20023;-43
2022/05/05 02:29:49;;;;;;;9.13;7.13;;;9.00;94.20;;;;;;5111358;28;20692;-50
2022/05/05 02:32:16;;;;;;;10.13;6.60;;;8.90;94.20;;;;;;5091845;28;20077;-45
2022/05/05 02:34:42;;;;;;;11.65;7.80;;;8.90;94.30;;;;;;5092292;28;20028;-46
2022/05/05 02:39:53;;;;;;;9.20;6.93;;;8.70;94.00;;;;;;5092131;28;20491;-51
2022/05/05 02:42:19;;;;;;;9.25;7.25;;;8.60;94.30;;;;;;5101336;28;20024;-43
2022/05/05 02:44:45;;;;;;;9.68;6.97;;;8.50;94.50;;;;;;5088272;28;20028;-51
2022/05/05 02:47:11;;;;;;;10.27;8.13;;;8.50;94.50;;;;;;5074900;28;20392;-53
2022/05/05 02:49:37;;;;;;;10.73;8.75;;;8.50;94.50;;;;;;5074368;28;20032;-53
2022/05/05 02:52:04;;;;;;;11.13;8.38;;;8.50;94.70;;;;;;5110602;28;20024;-56
2022/05/05 02:54:50;;;;;;;12.60;9.10;;;8.50;94.80;;;;;;5114196;28;20115;-53
2022/05/05 02:57:20;;;;;;;11.40;8.95;;;8.50;94.90;;;;;;5115248;28;20129;-45
2022/05/05 02:59:49;;;;;;;12.35;8.88;;;8.50;95.20;;;;;;5115138;28;20085;-53
2022/05/05 03:02:15;;;;;;;11.85;9.10;;;8.40;94.70;;;;;;5095274;28;20020;-52
2022/05/05 03:04:41;;;;;;;11.95;9.23;;;8.40;94.50;;;;;;5094887;28;20031;-52
2022/05/05 03:07:07;;;;;;;12.88;9.45;;;8.40;94.80;;;;;;5093322;28;20024;-47
2022/05/05 03:09:33;;;;;;;11.68;8.65;;;8.40;94.90;;;;;;5094381;28;20492;-51
2022/05/05 03:11:59;;;;;;;13.00;10.02;;;8.40;95.00;;;;;;5111728;28;20111;-49
2022/05/05 03:14:24;;;;;;;11.93;9.27;;;8.40;95.10;;;;;;5114795;28;20392;-48
2022/05/05 03:16:50;;;;;;;14.13;9.90;;;8.40;95.10;;;;;;5114842;28;20357;-56
2022/05/05 03:19:16;;;;;;;13.05;9.20;;;8.40;95.10;;;;;;5114778;28;20047;-45
2022/05/05 03:21:41;;;;;;;11.45;8.88;;;8.40;95.20;;;;;;5099775;28;20020;-54
2022/05/05 03:24:07;;;;;;;12.63;9.38;;;8.40;95.10;;;;;;5094364;28;20032;-49
2022/05/05 03:26:33;;;;;;;12.48;8.98;;;8.40;95.00;;;;;;5094316;28;20066;-58
2022/05/05 03:28:58;;;;;;;11.20;8.73;;;8.40;94.90;;;;;;5094026;28;20401;-56
2022/05/05 03:31:24;;;;;;;11.13;8.52;;;8.40;94.80;;;;;;5106193;28;20045;-58
2022/05/05 03:33:50;;;;;;;11.02;8.38;;;8.40;94.70;;;;;;5114411;28;20110;-50
2022/05/05 03:36:16;;;;;;;10.02;8.05;;;8.40;94.40;;;;;;5114515;28;20020;-56
2022/05/05 03:38:42;;;;;;;12.55;8.70;;;8.40;94.40;;;;;;5114563;28;20024;-55
2022/05/05 03:41:08;;;;;;;13.32;9.00;;;8.30;94.40;;;;;;5111212;27;20023;-53
2022/05/05 03:43:34;;;;;;;12.45;9.10;;;8.30;94.50;;;;;;5114315;28;20424;-53
2022/05/05 03:45:59;;;;;;;13.63;9.10;;;8.20;94.60;;;;;;5114443;28;20026;-46
2022/05/05 03:48:26;;;;;;;12.98;8.85;;;8.30;94.70;;;;;;5114210;28;20027;-50
2022/05/05 03:50:51;;;;;;;11.52;8.82;;;8.20;94.80;;;;;;5106792;28;20277;-61
2022/05/05 03:53:18;;;;;;;13.02;9.63;;;8.30;94.90;;;;;;5093898;28;20115;-46
2022/05/05 03:55:44;;;;;;;12.32;9.40;;;8.30;94.80;;;;;;5093766;28;20016;-51
2022/05/05 03:58:10;;;;;;;11.63;9.20;;;8.30;94.80;;;;;;5093735;28;20020;-47
2022/05/05 04:00:36;;;;;;;15.23;9.77;;;8.30;94.90;;;;;;5095275;28;20264;-54
2022/05/05 04:05:45;;;;;;;13.07;9.60;;;8.30;94.90;;;;;;5114180;28;20072;-58
2022/05/05 04:08:11;;;;;;;13.13;9.15;;;8.30;95.00;;;;;;5113899;28;20032;-50
2022/05/05 04:10:36;;;;;;;13.73;9.05;;;8.30;95.00;;;;;;5112709;28;20516;-51
2022/05/05 04:13:02;;;;;;;11.80;8.80;;;8.40;95.00;;;;;;5093515;28;20032;-59
2022/05/05 04:15:29;;;;;;;14.88;9.90;;;8.30;95.00;;;;;;5093477;28;20032;-50
2022/05/05 04:17:55;;;;;;;11.52;8.95;;;8.40;95.00;;;;;;5093668;28;20054;-44
2022/05/05 04:20:21;;;;;;;14.18;8.98;;;8.40;95.00;;;;;;5093506;28;20021;-55
2022/05/05 04:22:46;;;;;;;12.40;8.82;;;8.30;95.00;;;;;;5111681;28;20051;-57
2022/05/05 04:25:12;;;;;;;11.57;9.00;;;8.30;95.20;;;;;;5113646;28;20106;-49
2022/05/05 04:27:40;;;;;;;11.73;8.75;;;8.30;95.00;;;;;;5113571;28;20069;-54
2022/05/05 04:30:08;;;;;;;12.35;8.68;;;8.30;94.90;;;;;;5112145;28;20047;-52
2022/05/05 04:32:34;;;;;;;11.82;8.55;;;8.30;94.90;;;;;;5096299;28;20133;-55
2022/05/05 04:35:00;;;;;;;12.30;8.75;;;8.30;95.00;;;;;;5092994;28;20059;-58
2022/05/05 04:37:26;;;;;;;12.27;8.65;;;8.30;95.00;;;;;;5092870;28;20441;-49
2022/05/05 04:39:51;;;;;;;12.23;8.52;;;8.30;94.80;;;;;;5092768;28;20024;-59
2022/05/05 04:42:17;;;;;;;9.68;7.22;;;8.30;94.60;;;;;;5104970;28;20023;-51
2022/05/05 04:44:42;;;;;;;12.27;8.35;;;8.20;94.50;;;;;;5113277;28;20107;-54
2022/05/05 04:47:08;;;;;;;10.80;8.07;;;8.20;94.50;;;;;;5111886;28;20058;-53
2022/05/05 04:49:34;;;;;;;11.05;7.53;;;8.30;94.50;;;;;;5112933;28;20076;-57
2022/05/05 04:52:00;;;;;;;10.55;7.60;;;8.30;94.60;;;;;;5102194;28;20024;-50
2022/05/05 04:54:25;;;;;;;13.02;8.40;;;8.30;94.60;;;;;;5092614;28;20028;-46
2022/05/05 04:56:51;;;;;;;11.38;7.95;;;8.30;94.50;;;;;;5091454;28;20109;-57
2022/05/05 04:59:17;;;;;;;9.57;7.20;;;8.30;94.40;;;;;;5092648;28;20384;-44
2022/05/05 05:01:42;;;;;;;10.05;7.32;;;8.30;94.50;;;;;;5100275;28;20059;-55
2022/05/05 05:04:08;;;;;;;9.52;7.05;;;8.30;94.40;;;;;;5112221;28;20368;-53
2022/05/05 05:06:34;;;;;;;9.68;6.82;;;8.40;94.50;;;;;;5112909;28;20440;-53
2022/05/05 05:09:00;;;;;;;12.35;7.95;;;8.40;94.70;;;;;;5111392;28;20027;-51
2022/05/05 05:11:26;;;;;;;10.02;6.97;;;8.40;94.60;;;;;;5106847;28;20020;-58
2022/05/05 05:13:52;;;;;;;9.68;7.20;;;8.40;94.70;;;;;;5092441;28;20123;-55
2022/05/05 05:16:18;;;;;;;13.55;9.30;;;8.50;94.80;;;;;;5092234;28;20046;-56
2022/05/05 05:18:43;;;;;;;12.77;8.95;;;8.60;94.90;;;;;;5092126;28;20450;-46
2022/05/05 05:21:09;;;;;;;12.43;8.98;;;8.70;94.90;;;;;;5086748;28;20147;-48
2022/05/05 05:23:35;;;;;;;11.48;8.27;;;8.70;94.90;;;;;;5080872;28;20024;-54
2022/05/05 05:26:01;;;;;;;13.40;10.43;;;8.80;95.00;;;;;;5078634;28;20107;-50
2022/05/05 05:28:26;;;;;;;12.98;9.57;;;8.90;94.90;;;;;;5083104;28;20111;-55
2022/05/05 05:30:52;;;;;;;13.75;8.73;;;8.90;94.80;;;;;;5086585;28;20086;-46
2022/05/05 05:33:18;;;;;;;13.07;9.60;;;9.00;94.70;;;;;;5086188;28;20127;-47
2022/05/05 05:35:47;;;;;;;14.93;9.90;;;9.10;94.60;;;;;;5083392;28;20036;-47
2022/05/05 05:38:13;;;;;;;13.02;9.98;;;9.20;94.50;;;;;;5073358;28;20452;-53
2022/05/05 05:40:40;;;;;;;11.85;9.02;;;9.30;94.40;;;;;;5084291;28;20069;-42
2022/05/05 05:43:06;;;;;;;12.32;9.75;;;9.40;94.40;;;;;;5110706;28;20028;-48
2022/05/05 05:45:32;;;;;;;12.48;9.85;;;9.40;94.20;;;;;;5109524;28;20030;-55
2022/05/05 05:47:58;;;;;;;15.07;10.85;;;9.60;94.10;;;;;;5091531;28;20069;-51
2022/05/05 05:50:24;;;;;;;12.88;9.60;;;9.70;93.80;;;;;;5091333;28;20111;-51
2022/05/05 05:52:49;;;;;;;10.90;9.00;;;9.90;93.90;;;;;;5107843;28;20054;-47
2022/05/05 05:55:15;;;;;;;10.70;8.40;;;10.50;94.00;;;;;;5109577;28;20055;-48
2022/05/05 05:57:41;;;;;;;9.55;7.20;;;11.60;91.50;;;;;;5075832;28;20020;-43
2022/05/05 06:00:08;;;;;;;10.05;6.53;;;12.90;88.00;;;;;;5073017;28;20024;-54
2022/05/05 06:05:18;;;;;;;8.07;6.25;;;15.10;76.90;;;;;;5086880;28;20023;-51
2022/05/05 06:07:44;;;;;;;9.25;6.97;;;16.00;72.10;;;;;;5090842;28;20032;-48
2022/05/05 06:10:10;;;;;;;9.45;7.03;;;16.40;67.40;;;;;;5082097;28;20032;-46
2022/05/05 06:12:36;;;;;;;8.90;7.25;;;16.70;69.20;;;;;;5101097;28;20028;-49
2022/05/05 06:15:02;;;;;;;7.90;6.82;;;17.20;68.10;;;;;;5091852;28;20054;-47
2022/05/05 06:17:27;;;;;;;8.45;6.50;;;17.70;65.50;;;;;;5083221;28;20024;-47
2022/05/05 06:19:53;;;;;;;8.18;6.55;;;18.40;62.70;;;;;;5082693;28;20032;-49
2022/05/05 06:22:19;;;;;;;6.88;6.13;;;19.00;62.00;;;;;;5069254;28;20461;-47
2022/05/05 06:24:44;;;;;;;7.30;6.18;;;19.60;59.40;;;;;;5069902;28;20115;-58
2022/05/05 06:27:10;;;;;;;8.57;6.25;;;20.20;55.90;;;;;;5069716;28;20021;-40
2022/05/05 06:29:35;;;;;;;7.80;6.10;;;20.50;56.70;;;;;;5070503;28;20053;-53
2022/05/05 06:32:01;;;;;;;6.70;5.72;;;21.10;56.70;;;;;;5068940;28;20048;-47
2022/05/05 06:34:27;;;;;;;7.55;5.82;;;21.50;52.60;;;;;;5068907;28;20055;-48
2022/05/05 06:36:52;;;;;;;7.78;6.00;;;21.80;52.40;;;;;;5068746;28;20495;-48
2022/05/05 06:39:18;;;;;;;7.78;5.25;;;22.10;52.70;;;;;;5067354;28;20220;-46
2022/05/05 06:41:43;;;;;;;7.78;6.07;;;22.30;51.00;;;;;;5067630;28;20039;-53
2022/05/05 06:44:10;;;;;;;7.05;6.07;;;22.60;52.70;;;;;;5068759;28;20035;-54
2022/05/05 06:46:36;;;;;;;7.70;5.55;;;22.80;50.30;;;;;;5069442;28;20048;-50
2022/05/05 06:49:02;;;;;;;8.43;6.10;;;23.00;49.10;;;;;;5069741;28;20125;-41
2022/05/05 06:51:27;;;;;;;6.95;5.57;;;23.20;51.50;;;;;;5070309;28;20482;-56
2022/05/05 06:53:53;;;;;;;9.48;5.65;;;23.20;50.60;;;;;;5089056;28;20031;-43
2022/05/05 06:56:19;;;;;;;7.30;6.00;;;23.30;50.90;;;;;;5089624;28;20024;-48
2022/05/05 06:58:45;;;;;;;6.53;5.75;;;23.40;50.50;;;;;;5091017;28;20056;-45
2022/05/05 07:06:39;;;;;;;7.20;6.05;;;23.10;46.40;;;;;;5091006;28;20074;-50
2022/05/05 07:11:49;;;;;;;6.30;5.47;;;23.50;51.50;;;;;;5090649;28;20080;-48
2022/05/05 07:14:15;;;;;;;9.10;6.05;;;24.00;48.80;;;;;;5090573;28;20107;-46
2022/05/05 07:16:41;;;;;;;7.40;5.90;;;24.20;48.70;;;;;;5090880;28;20027;-41
2022/05/05 07:19:07;;;;;;;9.23;5.90;;;24.30;49.40;;;;;;5090408;28;20077;-52
2022/05/05 07:21:33;;;;;;;8.27;6.18;;;24.60;47.80;;;;;;5088604;28;20047;-52
2022/05/05 07:23:58;;;;;;;11.00;6.20;;;25.10;47.20;;;;;;5087160;28;20150;-40
2022/05/05 07:26:24;;;;;;;6.72;5.30;;;25.10;44.30;;;;;;5090459;28;20052;-47
2022/05/05 07:28:49;;;;;;;5.85;4.95;;;24.60;45.60;;;;;;5092571;28;20047;-46
2022/05/05 07:31:17;;;;;;;6.97;5.05;;;24.30;47.60;;;;;;5091936;28;20044;-53
2022/05/05 07:33:43;;;;;;;8.02;5.22;;;24.30;48.70;;;;;;5092121;28;20027;-51
2022/05/05 07:36:09;;;;;;;5.78;4.30;;;24.20;46.30;;;;;;5092635;28;20414;-50
2022/05/05 07:38:35;;;;;;;6.35;5.25;;;23.70;46.80;;;;;;5094189;28;20028;-57
2022/05/05 07:41:01;;;;;;;7.82;5.45;;;23.00;48.50;;;;;;5093917;28;20025;-42
2022/05/05 07:43:26;;;;;;;11.07;5.13;;;22.20;52.50;;;;;;5094015;28;20020;-58
2022/05/05 07:45:52;;;;;;;8.32;5.25;;;21.60;53.80;;;;;;5093866;28;20060;-57
2022/05/05 07:48:19;;;;;;;8.70;5.45;;;21.00;56.30;;;;;;5093996;28;20066;-55
2022/05/05 07:50:47;;;;;;;6.80;4.80;;;20.50;58.80;;;;;;5093951;28;20111;-50
2022/05/05 07:53:13;;;;;;;6.60;5.35;;;20.20;58.40;;;;;;5093821;28;20051;-52
2022/05/05 07:55:39;;;;;;;7.97;5.00;;;20.00;60.00;;;;;;5093507;28;20032;-43
2022/05/05 07:58:05;;;;;;;8.52;5.05;;;20.00;57.70;;;;;;5093331;28;20070;-55
2022/05/05 08:00:31;;;;;;;7.70;5.03;;;19.80;61.40;;;;;;5092453;28;20392;-47
2022/05/05 08:02:56;;;;;;;7.57;4.70;;;19.60;59.40;;;;;;5093549;28;20048;-47
2022/05/05 08:05:22;;;;;;;6.70;4.93;;;19.30;61.50;;;;;;5092784;28;20580;-50
2022/05/05 08:07:49;;;;;;;6.93;4.60;;;19.00;60.60;;;;;;5091039;28;20383;-40
2022/05/05 08:10:17;;;;;;;7.78;4.57;;;19.10;60.50;;;;;;5088690;28;20078;-46
2022/05/05 08:12:43;;;;;;;6.10;4.25;;;19.30;64.00;;;;;;5082613;28;20020;-54
2022/05/05 08:15:10;;;;;;;7.15;4.28;;;19.70;61.60;;;;;;5093380;28;20066;-57
2022/05/05 08:17:36;;;;;;;6.78;4.72;;;20.00;58.80;;;;;;5093437;28;20016;-52
2022/05/05 08:20:03;;;;;;;6.78;4.70;;;20.70;61.50;;;;;;5093276;28;20024;-46
2022/05/05 08:22:29;;;;;;;7.57;4.93;;;21.20;55.10;;;;;;5093124;28;20024;-53
2022/05/05 08:30:22;;;;;;;5.85;4.15;;;24.00;52.40;;;;;;5093212;28;20063;-52
2022/05/05 08:32:48;;;;;;;7.35;4.50;;;25.10;47.20;;;;;;5092771;28;20024;-44
2022/05/05 08:35:14;;;;;;;5.43;4.07;;;26.00;46.80;;;;;;5093046;28;20496;-48
2022/05/05 08:37:40;;;;;;;5.93;3.80;;;26.50;44.50;;;;;;5092280;28;20492;-49
2022/05/05 08:40:06;;;;;;;5.45;3.60;;;26.80;42.90;;;;;;5092500;28;20031;-51
2022/05/05 08:42:32;;;;;;;5.13;3.38;;;26.90;40.40;;;;;;5093068;28;20035;-45
2022/05/05 08:44:59;;;;;;;3.58;2.85;;;26.50;41.50;;;;;;5092837;28;20028;-61
2022/05/05 08:47:26;;;;;;;6.28;3.03;;;26.20;45.90;;;;;;5092844;28;20016;-52
2022/05/05 08:49:58;;;;;;;4.60;2.70;;;26.70;49.30;;;;;;5092668;28;20036;-45
2022/05/05 08:52:25;;;;;;;6.05;2.83;;;26.80;41.60;;;;;;5090651;28;20487;-49
2022/05/05 08:54:51;;;;;;;5.82;3.13;;;27.20;43.00;;;;;;5090649;28;20039;-50
2022/05/05 08:57:17;;;;;;;5.32;3.00;;;27.50;42.40;;;;;;5090673;28;20032;-58
2022/05/05 08:59:43;;;;;;;6.97;3.30;;;27.10;39.80;;;;;;5090684;28;20027;-55
2022/05/05 09:02:10;;;;;;;4.90;3.45;;;25.70;39.00;;;;;;5090461;28;20103;-53
2022/05/05 09:04:36;;;;;;;5.97;3.80;;;24.80;41.50;;;;;;5090919;28;20376;-52
2022/05/05 09:07:02;;;;;;;4.80;3.47;;;24.80;46.90;;;;;;5091746;28;20074;-51
2022/05/05 09:09:32;;;;;;;8.55;3.60;;;24.60;44.40;;;;;;5092274;28;20033;-41
2022/05/05 09:12:12;;;;;;;5.43;3.33;;;24.20;41.80;;;;;;5092365;28;20028;-51
2022/05/05 09:14:44;;;;;;;8.10;4.07;;;23.90;47.20;;;;;;5092288;28;20079;-49
2022/05/05 09:17:14;;;;;;;8.43;4.03;;;23.60;46.00;;;;;;5092092;28;20027;-58
2022/05/05 09:19:43;;;;;;;5.30;3.05;;;24.20;47.20;;;;;;5092138;28;20393;-50
2022/05/05 09:22:09;;;;;;;7.47;3.20;;;24.20;46.90;;;;;;5092437;28;20020;-52
2022/05/05 09:24:36;;;;;;;5.80;3.70;;;23.50;45.70;;;;;;5090853;28;20024;-44
2022/05/05 09:27:21;;;;;;;7.55;3.75;;;22.90;48.30;;;;;;5092202;28;20042;-54
2022/05/05 09:30:02;;;;;;;6.20;4.32;;;21.80;48.60;;;;;;5090574;28;20048;-53
2022/05/05 09:32:45;;;;;;;5.75;4.00;;;21.30;51.00;;;;;;5092042;28;20028;-51
2022/05/05 09:35:16;;;;;;;5.35;3.85;;;21.20;56.20;;;;;;5091886;28;20016;-59
2022/05/05 09:37:49;;;;;;;5.75;3.67;;;22.30;54.90;;;;;;5091894;28;20115;-55
2022/05/05 09:40:20;;;;;;;6.55;3.35;;;23.30;50.10;;;;;;5091822;28;20024;-58
2022/05/05 09:42:49;;;;;;;5.80;3.33;;;24.40;51.70;;;;;;5091782;28;20324;-56
2022/05/05 09:45:21;;;;;;;3.75;3.03;;;24.60;46.60;;;;;;5091814;28;20392;-50
2022/05/05 09:47:49;;;;;;;6.35;3.03;;;24.10;43.90;;;;;;5091773;28;20028;-55
2022/05/05 09:50:16;;;;;;;5.35;3.30;;;23.80;45.90;;;;;;5091336;28;20032;-59
2022/05/05 09:58:15;;;;;;;5.00;2.97;;;24.10;43.60;;;;;;5091829;28;20111;-55
2022/05/05 10:00:58;;;;;;;4.68;2.63;;;24.50;43.30;;;;;;5091402;28;20028;-54
2022/05/05 10:06:46;;;;;;;4.50;2.80;;;24.30;42.90;;;;;;5091479;28;20039;-47
2022/05/05 10:09:13;;;;;;;4.05;2.53;;;24.20;46.70;;;;;;5089541;28;20035;-58
2022/05/05 10:11:40;;;;;;;4.28;3.00;;;24.50;45.00;;;;;;5090088;28;20435;-56
2022/05/05 10:14:11;;;;;;;8.23;2.78;;;23.90;42.30;;;;;;5091345;28;20016;-48
2022/05/05 10:16:37;;;;;;;5.80;2.70;;;23.10;45.50;;;;;;5091390;28;20609;-53
2022/05/05 10:19:04;;;;;;;4.57;2.72;;;22.60;45.50;;;;;;5091250;28;20074;-53
2022/05/05 10:21:47;;;;;;;4.20;2.40;;;22.00;46.20;;;;;;5091149;28;20497;-44
2022/05/05 10:24:37;;;;;;;5.10;2.30;;;21.60;47.40;;;;;;5091213;28;20016;-52
2022/05/05 10:27:04;;;;;;;3.95;2.35;;;21.20;50.30;;;;;;5091371;28;20036;-55
2022/05/05 10:29:33;;;;;;;4.78;2.63;;;21.10;50.20;;;;;;5091030;28;20135;-50
2022/05/05 10:32:18;;;;;;;3.75;2.50;;;21.20;47.20;;;;;;5091086;28;20043;-54
2022/05/05 10:35:05;;;;;;;5.25;2.63;;;21.30;51.90;;;;;;5091064;28;20494;-46
2022/05/05 10:37:37;;;;;;;4.75;2.45;;;21.80;50.60;;;;;;5090964;28;20479;-52
2022/05/05 10:40:11;;;;;;;5.13;2.40;;;23.20;48.70;;;;;;5091432;28;20388;-47
2022/05/05 10:42:40;;;;;;;5.47;2.53;;;23.70;45.10;;;;;;5090003;28;20019;-49
2022/05/05 10:45:13;;;;;;;7.25;2.53;;;22.90;44.00;;;;;;5091267;28;20044;-54
2022/05/05 10:48:01;;;;;;;4.35;2.20;;;23.00;44.20;;;;;;5091055;28;20054;-59
2022/05/05 10:50:36;;;;;;;5.13;2.25;;;23.40;49.30;;;;;;5089727;28;20051;-47
2022/05/05 10:53:03;;;;;;;6.65;2.72;;;24.10;47.50;;;;;;5089854;28;20085;-48
2022/05/05 10:55:44;;;;;;;5.47;2.58;;;23.90;42.50;;;;;;5090870;28;20020;-58
2022/05/05 10:58:10;;;;;;;5.95;2.95;;;23.80;43.90;;;;;;5089578;28;20016;-53
2022/05/05 11:00:41;;;;;;;6.40;2.85;;;23.20;44.20;;;;;;5089203;28;20574;-42
2022/05/05 11:03:09;;;;;;;4.65;2.50;;;23.20;47.30;;;;;;5093175;28;20473;-52
2022/05/05 11:05:36;;;;;;;4.00;2.58;;;23.20;44.50;;;;;;5094056;28;20035;-54
2022/05/05 11:08:14;;;;;;;3.80;2.60;;;23.20;46.60;;;;;;5094486;28;20074;-43
2022/05/05 11:13:37;;;;;;;3.80;2.63;;;22.70;47.20;;;;;;5091525;28;20032;-54
2022/05/05 11:22:17;;;;;;;5.75;3.20;;;21.70;53.00;;;;;;5091321;28;20030;-59
2022/05/05 11:24:46;;;;;;;5.68;2.42;;;22.30;48.60;;;;;;5093185;28;20044;-52
2022/05/05 11:27:13;;;;;;;2.90;2.28;;;23.10;47.20;;;;;;5093996;28;20048;-47
2022/05/05 11:29:39;;;;;;;4.72;2.38;;;23.80;48.90;;;;;;5093181;28;20127;-51
2022/05/05 11:32:06;;;;;;;5.82;2.63;;;24.40;45.40;;;;;;5091769;28;20107;-45
2022/05/05 11:34:39;;;;;;;4.78;2.58;;;24.40;41.00;;;;;;5093264;28;20032;-55
2022/05/05 11:37:07;;;;;;;5.05;2.40;;;24.00;41.40;;;;;;5089863;28;20036;-56
2022/05/05 11:39:34;;;;;;;3.42;2.30;;;23.60;40.70;;;;;;5089139;28;20104;-47
2022/05/05 11:42:05;;;;;;;4.38;2.67;;;23.20;46.20;;;;;;5093767;28;20020;-56
2022/05/05 11:44:35;;;;;;;4.05;2.30;;;22.70;44.50;;;;;;5093475;28;20078;-56
2022/05/05 11:47:18;;;;;;;6.90;2.78;;;22.70;51.10;;;;;;5093269;28;20035;-45
2022/05/05 11:49:52;;;;;;;6.25;2.80;;;23.10;46.30;;;;;;5093314;28;20044;-45
2022/05/05 11:52:25;;;;;;;4.82;2.28;;;23.70;50.20;;;;;;5093141;28;20073;-50
2022/05/05 11:54:53;;;;;;;4.93;2.42;;;24.50;47.70;;;;;;5082213;28;20034;-55
2022/05/05 11:57:40;;;;;;;7.55;2.40;;;24.50;41.30;;;;;;5093141;28;20520;-48
2022/05/05 12:02:57;;;;;;;4.28;2.13;;;24.40;42.50;;;;;;5084088;28;20085;-44
2022/05/05 12:05:25;;;;;;;4.13;2.25;;;24.20;42.50;;;;;;5092549;28;20020;-46
2022/05/05 12:07:52;;;;;;;7.10;2.75;;;23.90;42.30;;;;;;5092209;28;20464;-54
2022/05/05 12:10:19;;;;;;;4.85;2.50;;;23.50;44.60;;;;;;5091899;28;20040;-47
2022/05/05 12:12:46;;;;;;;5.90;2.50;;;23.00;44.30;;;;;;5092354;28;20028;-56
2022/05/05 12:15:13;;;;;;;4.05;2.05;;;23.10;46.60;;;;;;5092212;28;20545;-49
2022/05/05 12:17:43;;;;;;;4.18;2.60;;;23.30;44.00;;;;;;5091943;28;20028;-44
2022/05/05 12:20:16;;;;;;;9.85;2.72;;;23.30;44.70;;;;;;5092476;28;20039;-50
2022/05/05 12:22:43;;;;;;;3.30;1.90;;;23.00;43.90;;;;;;5091923;28;20460;-52
2022/05/05 12:25:15;;;;;;;4.28;2.67;;;22.60;44.20;;;;;;5089804;28;20073;-43
2022/05/05 12:27:41;;;;;;;4.15;2.28;;;22.10;47.40;;;;;;5090955;28;20111;-45
2022/05/05 12:30:08;;;;;;;5.78;2.55;;;22.10;45.70;;;;;;5090511;28;20131;-44
2022/05/05 12:32:34;;;;;;;5.15;2.30;;;22.30;48.40;;;;;;5089417;28;20032;-45
2022/05/05 12:35:10;;;;;;;4.18;2.58;;;22.50;48.80;;;;;;5090815;28;20043;-46
2022/05/05 12:37:39;;;;;;;4.50;2.50;;;22.70;47.10;;;;;;5091096;28;20059;-43
2022/05/05 12:40:06;;;;;;;4.60;2.15;;;22.80;46.50;;;;;;5090760;28;20020;-39
2022/05/05 12:42:39;;;;;;;4.68;2.38;;;23.30;49.40;;;;;;5089532;28;20119;-44
2022/05/05 12:45:08;;;;;;;5.88;2.28;;;23.60;45.90;;;;;;5092379;28;20021;-50
2022/05/05 12:47:38;;;;;;;;;;;23.80;42.90;;;;;;5092471;28;20027;-46
2022/05/05 12:50:05;;;;;;;4.15;2.20;;;24.10;42.20;;;;;;5091950;28;20392;-48
2022/05/05 13:00:49;;;;;;;5.10;2.20;;;23.40;43.70;;;;;;5092148;28;20047;-50
2022/05/05 13:03:15;;;;;;;5.75;2.13;;;23.30;44.10;;;;;;5091757;28;20049;-54
2022/05/05 13:05:41;;;;;;;3.90;2.08;;;23.50;41.10;;;;;;5090937;28;20024;-54
2022/05/05 13:08:07;;;;;;;5.30;2.28;;;23.50;46.40;;;;;;5090559;28;20472;-46
2022/05/05 13:10:33;;;;;;;4.43;2.00;;;23.80;45.20;;;;;;5089713;28;20032;-51
2022/05/05 13:12:58;;;;;;;4.50;1.98;;;23.60;43.00;;;;;;5091045;28;20073;-51
2022/05/05 13:15:24;;;;;;;5.90;2.03;;;23.30;40.90;;;;;;5091212;28;20071;-50
2022/05/05 13:17:50;;;;;;;3.88;2.33;;;23.00;42.90;;;;;;5091025;28;20053;-55
2022/05/05 13:20:15;;;;;;;3.60;1.90;;;23.00;45.60;;;;;;5091998;28;20020;-44
2022/05/05 13:22:41;;;;;;;4.38;2.10;;;23.00;45.20;;;;;;5075130;28;20048;-52
2022/05/05 13:25:07;;;;;;;5.22;2.35;;;22.90;44.00;;;;;;5087363;28;20036;-53
2022/05/05 13:27:33;;;;;;;4.47;2.10;;;22.60;42.90;;;;;;5090074;28;20052;-42
2022/05/05 13:29:58;;;;;;;3.88;2.38;;;22.50;43.20;;;;;;5091486;28;20079;-57
2022/05/05 13:32:24;;;;;;;3.00;1.77;;;22.40;44.70;;;;;;5084714;28;20028;-50
2022/05/05 13:34:52;;;;;;;3.28;2.15;;;22.60;46.90;;;;;;5091828;28;20417;-54
2022/05/05 13:37:19;;;;;;;5.23;2.07;;;22.90;45.10;;;;;;5091727;28;20024;-48
2022/05/05 13:39:44;;;;;;;4.50;2.33;;;23.10;45.10;;;;;;5090608;28;20016;-51
2022/05/05 13:42:10;;;;;;;3.50;2.40;;;23.30;44.60;;;;;;5091859;28;20025;-56
2022/05/05 13:44:36;;;;;;;3.80;2.33;;;23.40;42.10;;;;;;5090661;28;20016;-56
2022/05/05 13:47:01;;;;;;;4.35;2.10;;;23.60;42.50;;;;;;5091761;28;20024;-55